createdAt,value
2018-09-10T00:00:08.492Z,1.90
2018-09-10T00:02:38.544Z,1.70
2018-09-10T00:05:09.288Z,1.87
2018-09-10T00:07:38.664Z,2.00
2018-09-10T00:10:07.594Z,1.80
2018-09-10T00:12:36.612Z,1.90
2018-09-10T00:15:07.249Z,2.10
2018-09-10T00:17:36.034Z,1.90
2018-09-10T00:20:05.288Z,2.10
2018-09-10T00:22:35.675Z,2.10
2018-09-10T00:25:04.663Z,1.85
2018-09-10T00:27:33.425Z,2.27
2018-09-10T00:30:03.998Z,1.73
2018-09-10T00:32:33.137Z,1.70
2018-09-10T00:35:01.967Z,1.97
2018-09-10T00:37:30.999Z,1.90
2018-09-10T00:39:59.947Z,1.70
2018-09-10T00:42:28.627Z,1.72
2018-09-10T00:44:57.583Z,1.82
2018-09-10T00:47:26.217Z,1.77
2018-09-10T00:49:55.185Z,2.13
2018-09-10T00:52:24.011Z,1.72
2018-09-10T00:54:53.187Z,1.80
2018-09-10T00:57:22.890Z,2.37
2018-09-10T00:59:51.546Z,1.80
2018-09-10T01:02:20.777Z,2.13
2018-09-10T01:04:49.506Z,2.00
2018-09-10T01:07:18.352Z,1.87
2018-09-10T01:09:47.466Z,1.85
2018-09-10T01:12:18.263Z,1.70
2018-09-10T01:14:46.968Z,1.90
2018-09-10T01:17:15.570Z,1.80
2018-09-10T01:19:44.179Z,1.92
2018-09-10T01:22:13.606Z,1.80
2018-09-10T01:24:42.435Z,1.82
2018-09-10T01:27:11.496Z,2.10
2018-09-10T01:29:40.421Z,1.82
2018-09-10T01:32:09.189Z,1.77
2018-09-10T01:34:43.209Z,1.70
2018-09-10T01:37:11.814Z,1.77
2018-09-10T01:39:40.832Z,1.90
2018-09-10T01:42:09.461Z,1.90
2018-09-10T01:44:38.571Z,1.65
2018-09-10T01:47:07.477Z,2.00
2018-09-10T01:49:36.153Z,1.80
2018-09-10T01:52:04.927Z,1.90
2018-09-10T01:54:33.562Z,1.70
2018-09-10T01:57:02.670Z,1.90
2018-09-10T01:59:33.125Z,1.70
2018-09-10T02:02:01.728Z,1.80
2018-09-10T02:04:30.316Z,1.95
2018-09-10T02:06:58.914Z,1.80
2018-09-10T02:09:27.481Z,1.82
2018-09-10T02:11:56.616Z,1.90
2018-09-10T02:14:25.178Z,1.90
2018-09-10T02:16:54.070Z,2.00
2018-09-10T02:19:22.853Z,1.90
2018-09-10T02:21:52.136Z,1.70
2018-09-10T02:24:22.003Z,2.00
2018-09-10T02:26:51.272Z,2.30
2018-09-10T02:29:20.955Z,1.80
2018-09-10T02:31:50.731Z,1.90
2018-09-10T02:34:21.149Z,1.95
2018-09-10T02:36:49.768Z,1.93
2018-09-10T02:39:18.397Z,1.95
2018-09-10T02:41:48.342Z,2.05
2018-09-10T02:44:17.132Z,2.22
2018-09-10T02:46:46.252Z,1.95
2018-09-10T02:49:15.854Z,1.90
2018-09-10T02:51:45.816Z,1.90
2018-09-10T02:54:15.052Z,1.85
2018-09-10T02:56:44.891Z,2.10
2018-09-10T02:59:14.051Z,1.98
2018-09-10T03:01:43.093Z,1.90
2018-09-10T03:04:11.844Z,1.80
2018-09-10T03:06:40.395Z,2.20
2018-09-10T03:09:09.680Z,2.15
2018-09-10T03:11:39.357Z,2.10
2018-09-10T03:14:09.545Z,2.10
2018-09-10T03:16:38.356Z,2.27
2018-09-10T03:19:07.080Z,2.00
2018-09-10T03:21:35.683Z,1.80
2018-09-10T03:24:05.856Z,1.95
2018-09-10T03:26:34.473Z,2.00
2018-09-10T03:29:03.626Z,2.10
2018-09-10T03:31:32.558Z,1.90
2018-09-10T03:34:01.797Z,1.83
2018-09-10T03:36:30.411Z,1.80
2018-09-10T03:38:59.052Z,2.00
2018-09-10T03:41:28.847Z,1.87
2018-09-10T03:43:58.035Z,2.20
2018-09-10T03:46:26.969Z,2.02
2018-09-10T03:48:55.756Z,2.10
2018-09-10T03:51:24.619Z,2.10
2018-09-10T03:53:54.432Z,1.90
2018-09-10T03:56:24.359Z,1.90
2018-09-10T03:58:53.320Z,2.10
2018-09-10T04:01:22.592Z,1.92
2018-09-10T04:03:52.930Z,2.15
2018-09-10T04:06:21.493Z,1.90
2018-09-10T04:08:50.242Z,2.10
2018-09-10T04:11:20.532Z,2.08
2018-09-10T04:13:49.928Z,1.90
2018-09-10T04:16:19.670Z,1.90
2018-09-10T04:18:49.900Z,1.93
2018-09-10T04:21:18.778Z,1.80
2018-09-10T04:23:47.613Z,2.27
2018-09-10T04:26:16.865Z,2.00
2018-09-10T04:28:45.709Z,1.90
2018-09-10T04:31:15.312Z,2.00
2018-09-10T04:33:44.415Z,1.75
2018-09-10T04:36:13.383Z,2.10
2018-09-10T04:38:42.009Z,2.00
2018-09-10T04:41:12.872Z,1.87
2018-09-10T04:43:42.218Z,2.10
2018-09-10T04:46:11.472Z,2.15
2018-09-10T04:48:40.977Z,2.20
2018-09-10T04:51:09.791Z,2.08
2018-09-10T04:53:38.459Z,2.10
2018-09-10T04:56:07.177Z,1.92
2018-09-10T04:58:37.204Z,1.83
2018-09-10T05:01:06.674Z,1.90
2018-09-10T05:03:35.850Z,2.10
2018-09-10T05:06:04.692Z,2.08
2018-09-10T05:08:33.645Z,2.00
2018-09-10T05:11:02.750Z,2.35
2018-09-10T05:13:31.698Z,2.30
2018-09-10T05:16:00.758Z,2.08
2018-09-10T05:18:29.779Z,2.10
2018-09-10T05:20:58.355Z,2.07
2018-09-10T05:23:26.979Z,1.92
2018-09-10T05:26:01.983Z,2.10
2018-09-10T05:28:30.791Z,1.67
2018-09-10T05:30:59.476Z,1.90
2018-09-10T05:33:28.732Z,1.60
2018-09-10T05:35:57.835Z,2.10
2018-09-10T05:38:27.645Z,2.05
2018-09-10T05:40:58.476Z,1.98
2018-09-10T05:43:27.151Z,1.80
2018-09-10T05:45:56.147Z,1.80
2018-09-10T05:48:26.155Z,1.90
2018-09-10T05:50:54.973Z,1.80
2018-09-10T05:53:24.408Z,1.87
2018-09-10T05:55:53.197Z,1.70
2018-09-10T05:58:21.878Z,1.93
2018-09-10T06:00:50.676Z,1.70
2018-09-10T06:03:20.770Z,1.90
2018-09-10T06:05:49.591Z,1.90
2018-09-10T06:08:18.390Z,1.90
2018-09-10T06:10:47.169Z,1.80
2018-09-10T06:13:15.892Z,2.05
2018-09-10T06:15:44.779Z,2.30
2018-09-10T06:18:14.332Z,2.00
2018-09-10T06:20:44.659Z,1.80
2018-09-10T06:23:13.237Z,1.75
2018-09-10T06:25:43.270Z,1.77
2018-09-10T06:28:12.238Z,2.08
2018-09-10T06:30:41.198Z,2.00
2018-09-10T06:33:10.636Z,1.90
2018-09-10T06:35:40.897Z,1.67
2018-09-10T06:38:09.483Z,1.87
2018-09-10T06:40:38.616Z,2.05
2018-09-10T06:43:07.653Z,1.67
2018-09-10T06:45:36.224Z,1.90
2018-09-10T06:48:06.288Z,1.87
2018-09-10T06:50:35.765Z,1.95
2018-09-10T06:53:05.555Z,2.02
2018-09-10T06:55:34.662Z,1.65
2018-09-10T06:58:03.502Z,2.00
2018-09-10T07:00:32.740Z,1.80
2018-09-10T07:03:01.625Z,1.77
2018-09-10T07:05:31.020Z,1.60
2018-09-10T07:07:59.776Z,1.57
2018-09-10T07:10:28.648Z,1.77
2018-09-10T07:12:57.339Z,1.47
2018-09-10T07:15:26.101Z,2.30
2018-09-10T07:17:56.358Z,1.90
2018-09-10T07:20:25.348Z,1.50
2018-09-10T07:22:54.811Z,2.00
2018-09-10T07:25:23.514Z,1.40
2018-09-10T07:27:52.153Z,1.85
2018-09-10T07:30:20.895Z,1.92
2018-09-10T07:32:49.406Z,1.70
2018-09-10T07:35:18.170Z,2.30
2018-09-10T07:37:47.568Z,2.33
2018-09-10T07:40:16.252Z,1.92
2018-09-10T07:42:45.042Z,4.75
2018-09-10T07:45:13.880Z,2.65
2018-09-10T07:47:42.816Z,1.90
2018-09-10T07:50:12.439Z,2.30
2018-09-10T07:52:41.212Z,2.40
2018-09-10T07:55:09.919Z,2.02
2018-09-10T07:57:39.281Z,2.00
2018-09-10T08:00:08.798Z,3.30
2018-09-10T08:02:37.470Z,2.42
2018-09-10T08:05:07.139Z,2.30
2018-09-10T08:07:35.845Z,2.10
2018-09-10T08:10:05.582Z,2.10
2018-09-10T08:12:34.791Z,2.42
2018-09-10T08:15:04.014Z,3.17
2018-09-10T08:17:32.713Z,2.70
2018-09-10T08:20:02.485Z,2.00
2018-09-10T08:22:32.286Z,1.80
2018-09-10T08:25:00.975Z,1.90
2018-09-10T08:27:30.755Z,2.25
2018-09-10T08:30:00.392Z,1.87
2018-09-10T08:32:29.046Z,2.62
2018-09-10T08:34:57.618Z,1.90
2018-09-10T08:37:26.274Z,2.10
2018-09-10T08:39:54.838Z,1.92
2018-09-10T08:42:23.452Z,1.90
2018-09-10T08:44:52.103Z,4.80
2018-09-10T08:47:21.030Z,3.15
2018-09-10T08:49:50.044Z,2.20
2018-09-10T08:52:19.022Z,1.85
2018-09-10T08:54:48.244Z,1.90
2018-09-10T08:57:16.677Z,1.92
2018-09-10T08:59:46.221Z,2.10
2018-09-10T09:02:15.795Z,3.00
2018-09-10T09:04:45.454Z,2.12
2018-09-10T09:07:14.209Z,2.22
2018-09-10T09:09:43.712Z,2.20
2018-09-10T09:12:12.491Z,2.42
2018-09-10T09:14:41.175Z,3.00
2018-09-10T09:17:09.734Z,2.58
2018-09-10T09:19:38.552Z,2.40
2018-09-10T09:22:07.358Z,2.42
2018-09-10T09:24:36.099Z,2.52
2018-09-10T09:27:05.467Z,2.52
2018-09-10T09:29:34.189Z,2.70
2018-09-10T09:32:03.158Z,2.90
2018-09-10T09:34:37.208Z,2.87
2018-09-10T09:37:16.278Z,2.50
2018-09-10T09:39:50.532Z,2.45
2018-09-10T09:42:24.669Z,2.90
2018-09-10T09:44:58.666Z,2.58
2018-09-10T09:47:28.195Z,3.12
2018-09-10T09:49:57.629Z,3.10
2018-09-10T09:52:26.598Z,2.92
2018-09-10T09:54:55.349Z,3.00
2018-09-10T09:57:25.493Z,2.55
2018-09-10T09:59:55.119Z,2.90
2018-09-10T10:02:29.438Z,2.72
2018-09-10T10:04:58.963Z,2.87
2018-09-10T10:07:28.139Z,2.80
2018-09-10T10:09:56.885Z,3.10
2018-09-10T10:12:27.762Z,3.05
2018-09-10T10:14:56.812Z,3.17
2018-09-10T10:17:26.178Z,3.08
2018-09-10T10:19:55.355Z,3.42
2018-09-10T10:22:25.103Z,3.65
2018-09-10T10:24:53.890Z,4.72
2018-09-10T10:27:23.083Z,4.28
2018-09-10T10:29:51.581Z,3.70
2018-09-10T10:32:20.508Z,3.90
2018-09-10T10:34:49.206Z,4.03
2018-09-10T10:37:17.918Z,4.12
2018-09-10T10:39:46.855Z,3.98
2018-09-10T10:42:16.530Z,3.62
2018-09-10T10:44:46.302Z,3.45
2018-09-10T10:47:16.511Z,3.98
2018-09-10T10:49:45.294Z,3.45
2018-09-10T10:52:13.937Z,3.20
2018-09-10T10:54:42.668Z,3.50
2018-09-10T10:57:11.678Z,3.58
2018-09-10T10:59:45.223Z,3.40
2018-09-10T11:02:14.225Z,3.25
2018-09-10T11:04:43.052Z,3.40
2018-09-10T11:07:11.870Z,3.08
2018-09-10T11:09:40.879Z,3.83
2018-09-10T11:12:09.559Z,3.37
2018-09-10T11:14:39.619Z,3.30
2018-09-10T11:17:09.153Z,3.30
2018-09-10T11:19:37.767Z,3.33
2018-09-10T11:22:07.081Z,3.30
2018-09-10T11:24:36.610Z,3.47
2018-09-10T11:27:05.497Z,3.62
2018-09-10T11:29:35.243Z,3.67
2018-09-10T11:32:05.073Z,3.83
2018-09-10T11:34:35.366Z,3.22
2018-09-10T11:37:05.219Z,4.17
2018-09-10T11:39:34.861Z,3.50
2018-09-10T11:42:04.106Z,4.00
2018-09-10T11:44:33.898Z,3.47
2018-09-10T11:47:03.785Z,4.12
2018-09-10T11:49:32.804Z,3.50
2018-09-10T11:52:02.423Z,4.12
2018-09-10T11:54:34.925Z,4.30
2018-09-10T11:57:03.864Z,3.27
2018-09-10T11:59:32.477Z,3.25
2018-09-10T12:02:02.174Z,3.80
2018-09-10T12:04:31.015Z,3.95
2018-09-10T12:06:59.642Z,4.30
2018-09-10T12:09:28.411Z,3.77
2018-09-10T12:11:57.046Z,4.20
2018-09-10T12:14:25.556Z,3.98
2018-09-10T12:16:54.820Z,3.98
2018-09-10T12:19:23.775Z,4.00
2018-09-10T12:21:53.166Z,4.20
2018-09-10T12:24:21.989Z,4.00
2018-09-10T12:26:50.916Z,4.10
2018-09-10T12:29:20.764Z,4.03
2018-09-10T12:31:49.957Z,4.22
2018-09-10T12:34:18.748Z,3.85
2018-09-10T12:36:47.406Z,3.90
2018-09-10T12:39:16.481Z,4.10
2018-09-10T12:41:45.251Z,4.00
2018-09-10T12:44:14.220Z,3.98
2018-09-10T12:46:43.280Z,3.70
2018-09-10T12:49:12.313Z,3.50
2018-09-10T12:51:42.567Z,3.52
2018-09-10T12:54:12.315Z,3.60
2018-09-10T12:56:43.062Z,3.58
2018-09-10T12:59:12.452Z,3.22
2018-09-10T13:01:43.613Z,3.80
2018-09-10T13:04:12.787Z,3.58
2018-09-10T13:06:41.840Z,3.87
2018-09-10T13:09:11.595Z,4.05
2018-09-10T13:11:40.592Z,3.80
2018-09-10T13:14:09.535Z,4.03
2018-09-10T13:16:38.476Z,3.50
2018-09-10T13:19:07.424Z,3.45
2018-09-10T13:21:36.139Z,3.87
2018-09-10T13:24:05.081Z,3.35
2018-09-10T13:26:34.470Z,3.20
2018-09-10T13:29:04.551Z,3.20
2018-09-10T13:31:33.672Z,3.10
2018-09-10T13:34:02.413Z,3.37
2018-09-10T13:36:31.100Z,3.52
2018-09-10T13:38:59.710Z,2.98
2018-09-10T13:41:28.473Z,3.10
2018-09-10T13:43:57.324Z,2.90
2018-09-10T13:46:27.152Z,2.90
2018-09-10T13:48:56.455Z,2.50
2018-09-10T13:51:25.844Z,2.42
2018-09-10T13:53:54.908Z,2.90
2018-09-10T13:56:24.810Z,2.60
2018-09-10T13:58:53.609Z,2.50
2018-09-10T14:01:22.374Z,2.58
2018-09-10T14:03:52.608Z,2.40
2018-09-10T14:06:21.578Z,2.17
2018-09-10T14:08:51.362Z,2.25
2018-09-10T14:11:21.333Z,1.95
2018-09-10T14:13:51.830Z,2.58
2018-09-10T14:16:21.455Z,2.15
2018-09-10T14:18:50.354Z,2.40
2018-09-10T14:21:21.208Z,2.45
2018-09-10T14:23:50.828Z,2.40
2018-09-10T14:26:19.500Z,2.00
2018-09-10T14:28:48.286Z,2.10
2018-09-10T14:31:18.552Z,2.15
2018-09-10T14:33:48.165Z,2.27
2018-09-10T14:36:17.624Z,2.27
2018-09-10T14:38:48.411Z,2.00
2018-09-10T14:41:18.401Z,2.50
2018-09-10T14:43:47.987Z,2.30
2018-09-10T14:46:16.808Z,2.15
2018-09-10T14:48:48.270Z,2.40
2018-09-10T14:51:17.521Z,2.10
2018-09-10T14:53:46.266Z,1.98
2018-09-10T14:56:16.415Z,2.10
2018-09-10T14:58:46.195Z,3.42
2018-09-10T15:01:15.684Z,2.33
2018-09-10T15:03:44.396Z,2.37
2018-09-10T15:06:13.267Z,2.00
2018-09-10T15:08:42.447Z,1.82
2018-09-10T15:11:11.985Z,1.65
2018-09-10T15:13:41.936Z,1.70
2018-09-10T15:16:11.665Z,2.45
2018-09-10T15:18:40.979Z,1.67
2018-09-10T15:21:09.686Z,1.70
2018-09-10T15:23:38.546Z,1.45
2018-09-10T15:26:07.819Z,1.92
2018-09-10T15:28:37.125Z,1.65
2018-09-10T15:31:07.278Z,1.75
2018-09-10T15:33:37.058Z,1.70
2018-09-10T15:36:07.801Z,2.10
2018-09-10T15:38:37.053Z,2.02
2018-09-10T15:41:09.192Z,1.72
2018-09-10T15:43:38.123Z,2.00
2018-09-10T15:46:06.969Z,1.85
2018-09-10T15:48:36.578Z,1.75
2018-09-10T15:51:07.109Z,1.82
2018-09-10T15:53:36.308Z,2.05
2018-09-10T15:56:06.225Z,1.70
2018-09-10T15:58:36.443Z,1.60
2018-09-10T16:01:05.197Z,1.60
2018-09-10T16:03:36.155Z,2.10
2018-09-10T16:06:05.458Z,3.65
2018-09-10T16:08:35.301Z,2.10
2018-09-10T16:11:05.428Z,1.67
2018-09-10T16:13:36.116Z,1.77
2018-09-10T16:16:04.951Z,1.77
2018-09-10T16:18:34.782Z,1.57
2018-09-10T16:21:05.176Z,1.85
2018-09-10T16:23:35.813Z,1.65
2018-09-10T16:26:05.025Z,1.70
2018-09-10T16:28:34.644Z,1.67
2018-09-10T16:31:05.103Z,1.82
2018-09-10T16:33:35.240Z,1.80
2018-09-10T16:36:06.662Z,1.87
2018-09-10T16:38:35.564Z,2.00
2018-09-10T16:41:05.655Z,1.70
2018-09-10T16:43:35.975Z,2.00
2018-09-10T16:46:06.962Z,2.17
2018-09-10T16:48:40.051Z,1.98
2018-09-10T16:51:09.020Z,2.30
2018-09-10T16:53:40.090Z,2.05
2018-09-10T16:56:09.304Z,2.17
2018-09-10T16:58:38.835Z,2.00
2018-09-10T17:01:08.120Z,2.30
2018-09-10T17:03:39.088Z,2.35
2018-09-10T17:06:09.409Z,2.98
2018-09-10T17:09:01.159Z,3.10
2018-09-10T17:11:31.059Z,6.45
2018-09-10T17:14:00.140Z,2.92
2018-09-10T17:16:30.392Z,2.40
2018-09-10T17:18:59.048Z,2.45
2018-09-10T17:21:29.146Z,2.10
2018-09-10T17:23:58.609Z,2.55
2018-09-10T17:26:28.466Z,2.25
2018-09-10T17:28:58.995Z,13.48
2018-09-10T17:31:27.823Z,6.35
2018-09-10T17:33:57.538Z,2.92
2018-09-10T17:36:26.251Z,2.40
2018-09-10T17:38:55.077Z,2.42
2018-09-10T17:41:24.664Z,2.00
2018-09-10T17:43:53.463Z,2.70
2018-09-10T17:46:22.130Z,2.10
2018-09-10T17:48:50.854Z,2.25
2018-09-10T17:51:19.653Z,2.50
2018-09-10T17:53:48.994Z,2.15
2018-09-10T17:56:27.441Z,3.02
2018-09-10T17:58:57.899Z,2.50
2018-09-10T18:01:27.363Z,2.33
2018-09-10T18:03:56.594Z,2.50
2018-09-10T18:06:26.357Z,2.47
2018-09-10T18:08:54.994Z,2.33
2018-09-10T18:11:23.676Z,2.22
2018-09-10T18:13:53.361Z,2.12
2018-09-10T18:16:23.358Z,2.05
2018-09-10T18:18:54.155Z,2.00
2018-09-10T18:21:23.889Z,2.05
2018-09-10T18:23:52.866Z,2.15
2018-09-10T18:26:22.969Z,2.15
2018-09-10T18:28:51.811Z,1.92
2018-09-10T18:31:20.594Z,2.05
2018-09-10T18:33:49.362Z,2.50
2018-09-10T18:36:18.167Z,2.08
2018-09-10T18:38:47.133Z,1.90
2018-09-10T18:41:15.694Z,2.12
2018-09-10T18:43:44.832Z,2.52
2018-09-10T18:46:15.894Z,2.30
2018-09-10T18:48:44.646Z,2.33
2018-09-10T18:51:13.253Z,3.22
2018-09-10T18:53:43.022Z,3.83
2018-09-10T18:56:17.388Z,2.95
2018-09-10T18:58:46.141Z,2.37
2018-09-10T19:01:15.830Z,2.00
2018-09-10T19:03:44.732Z,2.13
2018-09-10T19:06:14.217Z,2.30
2018-09-10T19:08:44.644Z,2.50
2018-09-10T19:11:13.548Z,1.80
2018-09-10T19:13:42.349Z,2.08
2018-09-10T19:16:11.693Z,2.30
2018-09-10T19:18:41.630Z,2.10
2018-09-10T19:21:10.624Z,2.30
2018-09-10T19:23:40.067Z,2.50
2018-09-10T19:26:08.885Z,2.50
2018-09-10T19:28:37.987Z,2.40
2018-09-10T19:31:06.864Z,2.30
2018-09-10T19:33:35.691Z,2.02
2018-09-10T19:36:06.226Z,2.27
2018-09-10T19:38:35.223Z,2.45
2018-09-10T19:41:04.415Z,3.22
2018-09-10T19:43:33.474Z,5.60
2018-09-10T19:46:03.383Z,2.60
2018-09-10T19:48:32.424Z,2.55
2018-09-10T19:51:03.116Z,2.07
2018-09-10T19:53:32.203Z,2.47
2018-09-10T19:56:02.241Z,2.27
2018-09-10T19:58:31.454Z,2.90
2018-09-10T20:01:00.292Z,2.55
2018-09-10T20:03:29.174Z,2.85
2018-09-10T20:06:00.144Z,2.70
2018-09-10T20:08:28.982Z,2.40
2018-09-10T20:10:57.922Z,2.20
2018-09-10T20:13:26.827Z,2.40
2018-09-10T20:15:56.396Z,2.20
2018-09-10T20:18:25.174Z,2.60
2018-09-10T20:20:55.001Z,2.60
2018-09-10T20:23:24.237Z,2.47
2018-09-10T20:25:52.922Z,2.70
2018-09-10T20:28:21.660Z,2.90
2018-09-10T20:30:50.537Z,2.50
2018-09-10T20:33:19.309Z,2.42
2018-09-10T20:35:48.455Z,2.87
2018-09-10T20:38:17.197Z,2.47
2018-09-10T20:40:45.986Z,2.50
2018-09-10T20:43:14.727Z,2.47
2018-09-10T20:45:43.382Z,2.40
2018-09-10T20:48:12.202Z,2.50
2018-09-10T20:50:41.484Z,2.42
2018-09-10T20:53:10.496Z,2.50
2018-09-10T20:55:39.171Z,2.12
2018-09-10T20:58:08.658Z,2.40
2018-09-10T21:00:38.945Z,2.56
2018-09-10T21:03:08.549Z,2.30
2018-09-10T21:05:37.622Z,2.67
2018-09-10T21:08:06.401Z,2.67
2018-09-10T21:10:35.117Z,2.50
2018-09-10T21:13:04.035Z,2.25
2018-09-10T21:15:32.716Z,2.10
2018-09-10T21:18:01.801Z,2.10
2018-09-10T21:20:30.389Z,2.30
2018-09-10T21:22:58.939Z,2.20
2018-09-10T21:25:28.328Z,2.50
2018-09-10T21:27:57.933Z,2.77
2018-09-10T21:30:26.834Z,2.80
2018-09-10T21:32:56.131Z,2.25
2018-09-10T21:35:25.066Z,2.25
2018-09-10T21:37:53.950Z,2.30
2018-09-10T21:40:22.720Z,4.53
2018-09-10T21:42:53.094Z,3.20
2018-09-10T21:45:22.027Z,2.90
2018-09-10T21:47:51.765Z,2.47
2018-09-10T21:50:20.553Z,2.55
2018-09-10T21:52:49.339Z,2.17
2018-09-10T21:55:18.114Z,2.25
2018-09-10T21:57:47.737Z,2.00
2018-09-10T22:00:16.476Z,2.33
2018-09-10T22:02:45.164Z,2.55
2018-09-10T22:05:13.711Z,2.30
2018-09-10T22:07:42.373Z,1.90
2018-09-10T22:10:11.079Z,2.42
2018-09-10T22:12:39.655Z,2.30
2018-09-10T22:15:08.340Z,2.02
2018-09-10T22:17:37.001Z,2.00
2018-09-10T22:20:06.010Z,1.95
2018-09-10T22:22:35.347Z,1.90
2018-09-10T22:25:04.092Z,2.10
2018-09-10T22:27:32.775Z,2.25
2018-09-10T22:30:02.397Z,1.92
2018-09-10T22:32:31.072Z,2.10
2018-09-10T22:34:59.960Z,1.77
2018-09-10T22:37:29.699Z,1.55
2018-09-10T22:39:58.453Z,1.82
2018-09-10T22:42:27.466Z,2.05
2018-09-10T22:44:56.109Z,1.75
2018-09-10T22:47:25.807Z,1.98
2018-09-10T22:49:54.569Z,1.55
2018-09-10T22:52:23.323Z,2.22
2018-09-10T22:54:52.919Z,2.10
2018-09-10T22:57:22.566Z,1.92
2018-09-10T22:59:51.756Z,2.25
2018-09-10T23:02:20.544Z,2.00
2018-09-10T23:04:49.344Z,2.20
2018-09-10T23:07:18.188Z,1.92
2018-09-10T23:09:47.186Z,1.87
2018-09-10T23:12:16.416Z,1.80
2018-09-10T23:14:45.584Z,2.10
2018-09-10T23:17:14.210Z,2.22
2018-09-10T23:19:42.745Z,2.10
2018-09-10T23:22:11.294Z,1.67
2018-09-10T23:24:40.006Z,1.92
2018-09-10T23:27:08.635Z,2.15
2018-09-10T23:29:37.308Z,1.70
2018-09-10T23:32:06.048Z,1.90
2018-09-10T23:34:34.527Z,2.08
2018-09-10T23:37:03.236Z,2.10
2018-09-10T23:39:32.299Z,2.10
2018-09-10T23:42:01.751Z,2.00
2018-09-10T23:44:30.534Z,1.90
2018-09-10T23:46:59.254Z,1.90
2018-09-10T23:49:28.269Z,1.75
2018-09-10T23:51:57.242Z,1.73
2018-09-10T23:54:26.033Z,2.00
2018-09-10T23:56:55.707Z,2.00
2018-09-10T23:59:24.689Z,2.17
